sensor_id;sensor_type;location;lat;lon;timestamp;P1;durP1;ratioP1;P2;durP2;ratioP2
27576;SDS011;15011;53.380;10.034;2023-05-19T00:00:06;679.92;;;618.42;;
27576;SDS011;15011;53.380;10.034;2023-05-19T00:05:10;479.27;;;437.90;;
27576;SDS011;15011;53.380;10.034;2023-05-19T00:10:12;493.45;;;449.85;;
27576;SDS011;15011;53.380;10.034;2023-05-19T00:15:13;632.78;;;575.78;;
27576;SDS011;15011;53.380;10.034;2023-05-19T00:20:14;446.55;;;409.08;;
27576;SDS011;15011;53.380;10.034;2023-05-19T00:25:14;619.28;;;564.20;;
27576;SDS011;15011;53.380;10.034;2023-05-19T00:30:15;487.37;;;447.13;;
27576;SDS011;15011;53.380;10.034;2023-05-19T00:35:15;628.53;;;570.20;;
27576;SDS011;15011;53.380;10.034;2023-05-19T00:40:16;551.03;;;502.73;;
27576;SDS011;15011;53.380;10.034;2023-05-19T00:45:16;574.78;;;522.28;;
27576;SDS011;15011;53.380;10.034;2023-05-19T00:50:19;474.27;;;434.38;;
27576;SDS011;15011;53.380;10.034;2023-05-19T01:00:24;521.72;;;474.88;;
27576;SDS011;15011;53.380;10.034;2023-05-19T01:05:24;474.63;;;434.90;;
27576;SDS011;15011;53.380;10.034;2023-05-19T01:10:25;349.90;;;321.17;;
27576;SDS011;15011;53.380;10.034;2023-05-19T01:15:26;471.77;;;431.33;;
27576;SDS011;15011;53.380;10.034;2023-05-19T01:20:29;447.95;;;409.70;;
27576;SDS011;15011;53.380;10.034;2023-05-19T01:30:59;758.65;;;687.92;;
27576;SDS011;15011;53.380;10.034;2023-05-19T01:36:02;530.92;;;485.88;;
27576;SDS011;15011;53.380;10.034;2023-05-19T01:41:03;462.50;;;420.80;;
27576;SDS011;15011;53.380;10.034;2023-05-19T01:51:05;356.33;;;328.33;;
27576;SDS011;15011;53.380;10.034;2023-05-19T01:56:06;709.80;;;644.73;;
27576;SDS011;15011;53.380;10.034;2023-05-19T02:01:09;688.47;;;626.28;;
27576;SDS011;15011;53.380;10.034;2023-05-19T02:11:45;665.85;;;606.35;;
27576;SDS011;15011;53.380;10.034;2023-05-19T02:16:49;277.67;;;255.25;;
27576;SDS011;15011;53.380;10.034;2023-05-19T02:21:51;681.27;;;618.13;;
27576;SDS011;15011;53.380;10.034;2023-05-19T02:26:52;567.90;;;517.30;;
27576;SDS011;15011;53.380;10.034;2023-05-19T02:31:53;339.27;;;312.75;;
27576;SDS011;15011;53.380;10.034;2023-05-19T02:36:53;491.40;;;447.55;;
27576;SDS011;15011;53.380;10.034;2023-05-19T02:41:55;347.53;;;320.13;;
27576;SDS011;15011;53.380;10.034;2023-05-19T02:46:56;517.50;;;471.23;;
27576;SDS011;15011;53.380;10.034;2023-05-19T02:51:56;411.40;;;376.20;;
27576;SDS011;15011;53.380;10.034;2023-05-19T02:56:56;528.97;;;482.20;;
27576;SDS011;15011;53.380;10.034;2023-05-19T03:02:00;454.83;;;415.80;;
27576;SDS011;15011;53.380;10.034;2023-05-19T03:07:01;338.75;;;311.70;;
27576;SDS011;15011;53.380;10.034;2023-05-19T03:12:02;366.73;;;336.67;;
27576;SDS011;15011;53.380;10.034;2023-05-19T03:17:03;524.45;;;477.42;;
27576;SDS011;15011;53.380;10.034;2023-05-19T03:22:07;629.50;;;571.40;;
27576;SDS011;15011;53.380;10.034;2023-05-19T03:27:07;611.67;;;556.80;;
27576;SDS011;15011;53.380;10.034;2023-05-19T03:32:08;497.88;;;451.85;;
27576;SDS011;15011;53.380;10.034;2023-05-19T03:37:08;479.33;;;437.13;;
27576;SDS011;15011;53.380;10.034;2023-05-19T03:42:09;498.10;;;454.55;;
27576;SDS011;15011;53.380;10.034;2023-05-19T03:47:10;576.23;;;523.03;;
27576;SDS011;15011;53.380;10.034;2023-05-19T03:52:10;401.33;;;367.45;;
27576;SDS011;15011;53.380;10.034;2023-05-19T03:57:12;482.27;;;441.05;;
27576;SDS011;15011;53.380;10.034;2023-05-19T04:02:13;467.43;;;426.80;;
27576;SDS011;15011;53.380;10.034;2023-05-19T04:07:14;528.33;;;481.88;;
27576;SDS011;15011;53.380;10.034;2023-05-19T04:12:14;375.10;;;346.50;;
27576;SDS011;15011;53.380;10.034;2023-05-19T04:17:14;433.65;;;396.88;;
27576;SDS011;15011;53.380;10.034;2023-05-19T04:22:15;617.20;;;557.58;;
27576;SDS011;15011;53.380;10.034;2023-05-19T04:27:15;379.42;;;348.45;;
27576;SDS011;15011;53.380;10.034;2023-05-19T04:32:16;396.75;;;361.17;;
27576;SDS011;15011;53.380;10.034;2023-05-19T04:37:17;629.95;;;569.63;;
27576;SDS011;15011;53.380;10.034;2023-05-19T04:42:19;507.92;;;461.92;;
27576;SDS011;15011;53.380;10.034;2023-05-19T04:47:19;440.45;;;403.30;;
27576;SDS011;15011;53.380;10.034;2023-05-19T04:52:20;414.40;;;376.55;;
27576;SDS011;15011;53.380;10.034;2023-05-19T04:57:21;295.23;;;270.73;;
27576;SDS011;15011;53.380;10.034;2023-05-19T05:02:22;424.63;;;388.08;;
27576;SDS011;15011;53.380;10.034;2023-05-19T05:07:22;564.38;;;511.38;;
27576;SDS011;15011;53.380;10.034;2023-05-19T05:12:23;543.53;;;491.48;;
27576;SDS011;15011;53.380;10.034;2023-05-19T05:17:24;489.52;;;445.20;;
27576;SDS011;15011;53.380;10.034;2023-05-19T05:22:26;530.85;;;483.60;;
27576;SDS011;15011;53.380;10.034;2023-05-19T05:27:27;456.60;;;412.17;;
27576;SDS011;15011;53.380;10.034;2023-05-19T05:32:27;507.90;;;459.33;;
27576;SDS011;15011;53.380;10.034;2023-05-19T05:37:29;372.95;;;338.17;;
27576;SDS011;15011;53.380;10.034;2023-05-19T05:42:29;592.10;;;536.10;;
27576;SDS011;15011;53.380;10.034;2023-05-19T05:47:30;291.27;;;263.77;;
27576;SDS011;15011;53.380;10.034;2023-05-19T05:52:31;456.38;;;411.30;;
27576;SDS011;15011;53.380;10.034;2023-05-19T05:57:31;568.75;;;513.47;;
27576;SDS011;15011;53.380;10.034;2023-05-19T06:02:34;564.75;;;511.05;;
27576;SDS011;15011;53.380;10.034;2023-05-19T06:07:35;450.63;;;405.77;;
27576;SDS011;15011;53.380;10.034;2023-05-19T06:12:36;400.42;;;362.17;;
27576;SDS011;15011;53.380;10.034;2023-05-19T06:17:39;456.70;;;414.30;;
27576;SDS011;15011;53.380;10.034;2023-05-19T06:22:40;524.50;;;473.10;;
27576;SDS011;15011;53.380;10.034;2023-05-19T06:27:41;572.28;;;518.25;;
27576;SDS011;15011;53.380;10.034;2023-05-19T06:32:41;422.75;;;382.83;;
27576;SDS011;15011;53.380;10.034;2023-05-19T06:37:41;649.53;;;588.65;;
27576;SDS011;15011;53.380;10.034;2023-05-19T06:42:42;429.98;;;388.85;;
27576;SDS011;15011;53.380;10.034;2023-05-19T06:47:42;401.35;;;363.42;;
27576;SDS011;15011;53.380;10.034;2023-05-19T06:52:44;338.15;;;306.65;;
27576;SDS011;15011;53.380;10.034;2023-05-19T06:57:46;415.17;;;375.17;;
27576;SDS011;15011;53.380;10.034;2023-05-19T07:02:46;556.33;;;502.42;;
27576;SDS011;15011;53.380;10.034;2023-05-19T07:07:47;499.92;;;453.63;;
27576;SDS011;15011;53.380;10.034;2023-05-19T07:12:47;547.30;;;494.25;;
27576;SDS011;15011;53.380;10.034;2023-05-19T07:17:48;273.60;;;250.98;;
27576;SDS011;15011;53.380;10.034;2023-05-19T07:22:49;368.75;;;337.23;;
27576;SDS011;15011;53.380;10.034;2023-05-19T07:27:50;377.42;;;341.67;;
27576;SDS011;15011;53.380;10.034;2023-05-19T07:32:50;600.38;;;542.35;;
27576;SDS011;15011;53.380;10.034;2023-05-19T07:37:51;493.27;;;444.35;;
27576;SDS011;15011;53.380;10.034;2023-05-19T07:42:51;469.15;;;422.40;;
27576;SDS011;15011;53.380;10.034;2023-05-19T07:47:52;263.87;;;240.47;;
27576;SDS011;15011;53.380;10.034;2023-05-19T07:52:53;374.50;;;342.38;;
27576;SDS011;15011;53.380;10.034;2023-05-19T07:57:53;439.25;;;396.20;;
27576;SDS011;15011;53.380;10.034;2023-05-19T08:02:55;382.80;;;351.67;;
27576;SDS011;15011;53.380;10.034;2023-05-19T08:07:56;513.15;;;463.35;;
27576;SDS011;15011;53.380;10.034;2023-05-19T08:12:56;669.25;;;596.33;;
27576;SDS011;15011;53.380;10.034;2023-05-19T08:17:57;774.00;;;692.35;;
27576;SDS011;15011;53.380;10.034;2023-05-19T08:22:57;519.55;;;472.92;;
27576;SDS011;15011;53.380;10.034;2023-05-19T08:27:58;571.55;;;510.42;;
27576;SDS011;15011;53.380;10.034;2023-05-19T08:33:04;445.35;;;406.70;;
27576;SDS011;15011;53.380;10.034;2023-05-19T08:38:06;341.75;;;311.35;;
27576;SDS011;15011;53.380;10.034;2023-05-19T08:43:06;418.00;;;382.40;;
27576;SDS011;15011;53.380;10.034;2023-05-19T08:48:07;401.98;;;366.20;;
27576;SDS011;15011;53.380;10.034;2023-05-19T08:53:17;495.83;;;451.17;;
27576;SDS011;15011;53.380;10.034;2023-05-19T08:58:21;360.25;;;331.95;;
27576;SDS011;15011;53.380;10.034;2023-05-19T09:03:21;386.42;;;352.98;;
27576;SDS011;15011;53.380;10.034;2023-05-19T09:08:22;1046.70;;;886.05;;
27576;SDS011;15011;53.380;10.034;2023-05-19T09:13:23;848.47;;;762.38;;
27576;SDS011;15011;53.380;10.034;2023-05-19T09:18:24;918.42;;;804.00;;
27576;SDS011;15011;53.380;10.034;2023-05-19T09:23:26;736.35;;;668.63;;
27576;SDS011;15011;53.380;10.034;2023-05-19T09:28:29;869.80;;;782.15;;
27576;SDS011;15011;53.380;10.034;2023-05-19T09:33:32;840.55;;;757.70;;
27576;SDS011;15011;53.380;10.034;2023-05-19T09:38:34;846.55;;;762.55;;
27576;SDS011;15011;53.380;10.034;2023-05-19T09:43:35;860.42;;;773.80;;
27576;SDS011;15011;53.380;10.034;2023-05-19T09:48:38;839.40;;;756.35;;
27576;SDS011;15011;53.380;10.034;2023-05-19T09:53:38;1501.32;;;936.83;;
27576;SDS011;15011;53.380;10.034;2023-05-19T09:58:40;701.72;;;636.67;;
27576;SDS011;15011;53.380;10.034;2023-05-19T10:03:41;886.00;;;788.00;;
27576;SDS011;15011;53.380;10.034;2023-05-19T10:08:41;881.53;;;744.25;;
27576;SDS011;15011;53.380;10.034;2023-05-19T10:13:44;810.45;;;731.20;;
27576;SDS011;15011;53.380;10.034;2023-05-19T10:18:45;870.75;;;780.20;;
27576;SDS011;15011;53.380;10.034;2023-05-19T10:23:46;969.92;;;810.13;;
27576;SDS011;15011;53.380;10.034;2023-05-19T10:28:46;907.08;;;769.13;;
27576;SDS011;15011;53.380;10.034;2023-05-19T10:39:10;812.45;;;732.33;;
27576;SDS011;15011;53.380;10.034;2023-05-19T10:49:28;806.80;;;728.78;;
27576;SDS011;15011;53.380;10.034;2023-05-19T10:54:40;856.63;;;765.70;;
27576;SDS011;15011;53.380;10.034;2023-05-19T10:59:42;855.55;;;763.45;;
27576;SDS011;15011;53.380;10.034;2023-05-19T11:04:46;763.10;;;691.13;;
27576;SDS011;15011;53.380;10.034;2023-05-19T11:09:53;875.00;;;783.05;;
27576;SDS011;15011;53.380;10.034;2023-05-19T11:14:53;734.25;;;668.65;;
27576;SDS011;15011;53.380;10.034;2023-05-19T11:19:55;728.70;;;662.30;;
27576;SDS011;15011;53.380;10.034;2023-05-19T11:24:56;757.20;;;684.72;;
27576;SDS011;15011;53.380;10.034;2023-05-19T11:35:05;671.45;;;609.83;;
27576;SDS011;15011;53.380;10.034;2023-05-19T11:40:06;926.37;;;783.37;;
27576;SDS011;15011;53.380;10.034;2023-05-19T11:45:07;771.80;;;699.00;;
27576;SDS011;15011;53.380;10.034;2023-05-19T11:50:09;747.85;;;678.30;;
27576;SDS011;15011;53.380;10.034;2023-05-19T11:55:14;699.42;;;635.35;;
27576;SDS011;15011;53.380;10.034;2023-05-19T12:00:15;804.47;;;723.65;;
27576;SDS011;15011;53.380;10.034;2023-05-19T12:05:23;803.17;;;722.97;;
27576;SDS011;15011;53.380;10.034;2023-05-19T12:10:27;786.33;;;713.25;;
27576;SDS011;15011;53.380;10.034;2023-05-19T12:15:29;786.65;;;712.55;;
27576;SDS011;15011;53.380;10.034;2023-05-19T12:20:30;738.77;;;669.27;;
27576;SDS011;15011;53.380;10.034;2023-05-19T12:25:31;664.13;;;603.53;;
27576;SDS011;15011;53.380;10.034;2023-05-19T12:30:32;705.47;;;643.03;;
27576;SDS011;15011;53.380;10.034;2023-05-19T12:35:32;829.87;;;748.37;;
27576;SDS011;15011;53.380;10.034;2023-05-19T12:40:36;811.38;;;732.22;;
27576;SDS011;15011;53.380;10.034;2023-05-19T12:45:38;769.35;;;696.25;;
27576;SDS011;15011;53.380;10.034;2023-05-19T12:50:41;970.08;;;784.25;;
27576;SDS011;15011;53.380;10.034;2023-05-19T12:55:44;802.70;;;726.72;;
27576;SDS011;15011;53.380;10.034;2023-05-19T13:00:44;779.20;;;705.80;;
27576;SDS011;15011;53.380;10.034;2023-05-19T13:05:49;806.17;;;728.13;;
27576;SDS011;15011;53.380;10.034;2023-05-19T13:10:50;803.95;;;721.67;;
27576;SDS011;15011;53.380;10.034;2023-05-19T13:15:50;735.60;;;670.08;;
27576;SDS011;15011;53.380;10.034;2023-05-19T13:20:51;718.63;;;655.10;;
27576;SDS011;15011;53.380;10.034;2023-05-19T13:30:53;806.80;;;727.57;;
27576;SDS011;15011;53.380;10.034;2023-05-19T13:35:54;866.67;;;774.53;;
27576;SDS011;15011;53.380;10.034;2023-05-19T13:40:55;927.92;;;825.90;;
27576;SDS011;15011;53.380;10.034;2023-05-19T13:45:56;739.17;;;667.20;;
27576;SDS011;15011;53.380;10.034;2023-05-19T13:50:56;783.65;;;708.35;;
27576;SDS011;15011;53.380;10.034;2023-05-19T13:55:58;920.75;;;824.47;;
27576;SDS011;15011;53.380;10.034;2023-05-19T14:00:59;712.33;;;648.38;;
27576;SDS011;15011;53.380;10.034;2023-05-19T14:06:00;849.38;;;766.40;;
27576;SDS011;15011;53.380;10.034;2023-05-19T14:11:00;830.83;;;752.10;;
27576;SDS011;15011;53.380;10.034;2023-05-19T14:16:01;872.25;;;784.30;;
27576;SDS011;15011;53.380;10.034;2023-05-19T14:21:01;822.05;;;742.33;;
27576;SDS011;15011;53.380;10.034;2023-05-19T14:26:01;925.25;;;830.53;;
27576;SDS011;15011;53.380;10.034;2023-05-19T14:31:02;889.10;;;795.20;;
27576;SDS011;15011;53.380;10.034;2023-05-19T14:36:03;847.42;;;762.90;;
27576;SDS011;15011;53.380;10.034;2023-05-19T14:41:04;853.25;;;766.05;;
27576;SDS011;15011;53.380;10.034;2023-05-19T14:46:05;837.77;;;752.00;;
27576;SDS011;15011;53.380;10.034;2023-05-19T14:51:06;921.20;;;828.70;;
27576;SDS011;15011;53.380;10.034;2023-05-19T14:56:06;879.88;;;792.30;;
27576;SDS011;15011;53.380;10.034;2023-05-19T15:01:07;868.25;;;781.55;;
27576;SDS011;15011;53.380;10.034;2023-05-19T15:06:08;636.05;;;583.28;;
27576;SDS011;15011;53.380;10.034;2023-05-19T15:11:09;852.65;;;768.33;;
27576;SDS011;15011;53.380;10.034;2023-05-19T15:16:10;701.80;;;630.40;;
27576;SDS011;15011;53.380;10.034;2023-05-19T15:21:10;764.67;;;693.87;;
27576;SDS011;15011;53.380;10.034;2023-05-19T15:26:11;838.00;;;760.78;;
27576;SDS011;15011;53.380;10.034;2023-05-19T15:31:12;454.58;;;415.77;;
27576;SDS011;15011;53.380;10.034;2023-05-19T15:36:12;872.50;;;781.58;;
27576;SDS011;15011;53.380;10.034;2023-05-19T15:41:15;1380.43;;;904.05;;
27576;SDS011;15011;53.380;10.034;2023-05-19T15:46:15;394.27;;;362.00;;
27576;SDS011;15011;53.380;10.034;2023-05-19T15:51:18;493.90;;;451.45;;
27576;SDS011;15011;53.380;10.034;2023-05-19T15:56:19;851.38;;;768.10;;
27576;SDS011;15011;53.380;10.034;2023-05-19T16:01:20;801.20;;;726.77;;
27576;SDS011;15011;53.380;10.034;2023-05-19T16:06:21;857.28;;;775.90;;
27576;SDS011;15011;53.380;10.034;2023-05-19T16:11:21;800.63;;;725.08;;
27576;SDS011;15011;53.380;10.034;2023-05-19T16:16:22;798.30;;;718.50;;
27576;SDS011;15011;53.380;10.034;2023-05-19T16:21:22;846.97;;;768.45;;
27576;SDS011;15011;53.380;10.034;2023-05-19T16:26:23;762.38;;;690.58;;
27576;SDS011;15011;53.380;10.034;2023-05-19T16:31:23;888.47;;;798.85;;
27576;SDS011;15011;53.380;10.034;2023-05-19T16:36:24;1466.75;;;953.28;;
27576;SDS011;15011;53.380;10.034;2023-05-19T16:41:25;848.25;;;768.67;;
27576;SDS011;15011;53.380;10.034;2023-05-19T16:46:25;843.60;;;763.45;;
27576;SDS011;15011;53.380;10.034;2023-05-19T16:51:26;889.05;;;801.70;;
27576;SDS011;15011;53.380;10.034;2023-05-19T16:56:26;861.17;;;780.63;;
27576;SDS011;15011;53.380;10.034;2023-05-19T17:01:27;834.63;;;755.88;;
27576;SDS011;15011;53.380;10.034;2023-05-19T17:06:27;883.40;;;799.00;;
27576;SDS011;15011;53.380;10.034;2023-05-19T17:11:27;873.92;;;783.20;;
27576;SDS011;15011;53.380;10.034;2023-05-19T17:16:28;889.42;;;805.50;;
27576;SDS011;15011;53.380;10.034;2023-05-19T17:21:28;823.80;;;746.15;;
27576;SDS011;15011;53.380;10.034;2023-05-19T17:26:31;822.35;;;745.50;;
27576;SDS011;15011;53.380;10.034;2023-05-19T17:31:32;683.40;;;623.78;;
27576;SDS011;15011;53.380;10.034;2023-05-19T17:36:33;848.70;;;766.30;;
27576;SDS011;15011;53.380;10.034;2023-05-19T17:41:33;933.90;;;841.83;;
27576;SDS011;15011;53.380;10.034;2023-05-19T17:46:34;746.35;;;676.78;;
27576;SDS011;15011;53.380;10.034;2023-05-19T17:51:35;787.55;;;716.95;;
27576;SDS011;15011;53.380;10.034;2023-05-19T17:56:37;860.22;;;775.50;;
27576;SDS011;15011;53.380;10.034;2023-05-19T18:01:40;788.88;;;718.25;;
27576;SDS011;15011;53.380;10.034;2023-05-19T18:06:41;917.53;;;825.92;;
27576;SDS011;15011;53.380;10.034;2023-05-19T18:11:43;713.42;;;652.38;;
27576;SDS011;15011;53.380;10.034;2023-05-19T18:16:43;869.50;;;784.30;;
27576;SDS011;15011;53.380;10.034;2023-05-19T18:21:44;830.08;;;747.13;;
27576;SDS011;15011;53.380;10.034;2023-05-19T18:26:45;913.55;;;823.10;;
27576;SDS011;15011;53.380;10.034;2023-05-19T18:31:45;897.35;;;810.70;;
27576;SDS011;15011;53.380;10.034;2023-05-19T18:36:46;900.47;;;811.55;;
27576;SDS011;15011;53.380;10.034;2023-05-19T18:41:46;791.87;;;715.67;;
27576;SDS011;15011;53.380;10.034;2023-05-19T18:46:47;902.03;;;814.90;;
27576;SDS011;15011;53.380;10.034;2023-05-19T18:51:48;926.72;;;835.20;;
27576;SDS011;15011;53.380;10.034;2023-05-19T18:56:49;914.83;;;822.75;;
27576;SDS011;15011;53.380;10.034;2023-05-19T19:01:49;795.95;;;722.60;;
27576;SDS011;15011;53.380;10.034;2023-05-19T19:06:50;822.85;;;743.53;;
27576;SDS011;15011;53.380;10.034;2023-05-19T19:11:51;780.07;;;710.43;;
27576;SDS011;15011;53.380;10.034;2023-05-19T19:16:51;866.60;;;780.20;;
27576;SDS011;15011;53.380;10.034;2023-05-19T19:21:52;875.55;;;788.65;;
27576;SDS011;15011;53.380;10.034;2023-05-19T19:26:53;820.38;;;742.90;;
27576;SDS011;15011;53.380;10.034;2023-05-19T19:31:53;829.10;;;748.13;;
27576;SDS011;15011;53.380;10.034;2023-05-19T19:36:53;772.75;;;701.65;;
27576;SDS011;15011;53.380;10.034;2023-05-19T19:41:54;869.53;;;786.53;;
27576;SDS011;15011;53.380;10.034;2023-05-19T19:46:54;737.70;;;676.72;;
27576;SDS011;15011;53.380;10.034;2023-05-19T19:51:55;851.92;;;769.05;;
27576;SDS011;15011;53.380;10.034;2023-05-19T19:56:55;900.60;;;812.15;;
27576;SDS011;15011;53.380;10.034;2023-05-19T20:01:56;803.05;;;730.42;;
27576;SDS011;15011;53.380;10.034;2023-05-19T20:06:56;821.53;;;743.80;;
27576;SDS011;15011;53.380;10.034;2023-05-19T20:11:56;825.85;;;748.70;;
27576;SDS011;15011;53.380;10.034;2023-05-19T20:16:57;839.15;;;757.72;;
27576;SDS011;15011;53.380;10.034;2023-05-19T20:21:57;860.22;;;776.25;;
27576;SDS011;15011;53.380;10.034;2023-05-19T20:26:58;932.42;;;836.38;;
27576;SDS011;15011;53.380;10.034;2023-05-19T20:31:58;896.53;;;806.40;;
27576;SDS011;15011;53.380;10.034;2023-05-19T20:36:59;918.40;;;827.85;;
27576;SDS011;15011;53.380;10.034;2023-05-19T20:41:59;900.40;;;809.03;;
27576;SDS011;15011;53.380;10.034;2023-05-19T20:47:00;839.38;;;760.95;;
27576;SDS011;15011;53.380;10.034;2023-05-19T20:52:00;898.15;;;807.85;;
27576;SDS011;15011;53.380;10.034;2023-05-19T20:57:01;821.25;;;746.55;;
27576;SDS011;15011;53.380;10.034;2023-05-19T21:02:05;859.25;;;773.17;;
27576;SDS011;15011;53.380;10.034;2023-05-19T21:07:06;851.67;;;769.10;;
27576;SDS011;15011;53.380;10.034;2023-05-19T21:12:07;748.35;;;686.05;;
27576;SDS011;15011;53.380;10.034;2023-05-19T21:17:08;889.63;;;800.80;;
27576;SDS011;15011;53.380;10.034;2023-05-19T21:22:08;913.08;;;821.83;;
27576;SDS011;15011;53.380;10.034;2023-05-19T21:27:09;820.50;;;741.65;;
27576;SDS011;15011;53.380;10.034;2023-05-19T21:32:09;880.50;;;791.33;;
27576;SDS011;15011;53.380;10.034;2023-05-19T21:37:10;840.78;;;758.97;;
27576;SDS011;15011;53.380;10.034;2023-05-19T21:42:10;840.03;;;758.75;;
27576;SDS011;15011;53.380;10.034;2023-05-19T21:47:12;880.15;;;792.30;;
27576;SDS011;15011;53.380;10.034;2023-05-19T21:52:12;888.55;;;798.40;;
27576;SDS011;15011;53.380;10.034;2023-05-19T21:57:13;791.03;;;718.67;;
27576;SDS011;15011;53.380;10.034;2023-05-19T22:02:13;852.17;;;768.15;;
27576;SDS011;15011;53.380;10.034;2023-05-19T22:07:14;910.80;;;817.78;;
27576;SDS011;15011;53.380;10.034;2023-05-19T22:12:14;849.35;;;763.08;;
27576;SDS011;15011;53.380;10.034;2023-05-19T22:17:15;784.15;;;712.40;;
27576;SDS011;15011;53.380;10.034;2023-05-19T22:22:15;920.77;;;827.90;;
27576;SDS011;15011;53.380;10.034;2023-05-19T22:27:16;889.63;;;802.95;;
27576;SDS011;15011;53.380;10.034;2023-05-19T22:32:16;862.33;;;777.20;;
27576;SDS011;15011;53.380;10.034;2023-05-19T22:37:24;790.07;;;716.03;;
27576;SDS011;15011;53.380;10.034;2023-05-19T22:42:24;819.85;;;744.53;;
27576;SDS011;15011;53.380;10.034;2023-05-19T22:47:25;856.53;;;774.25;;
27576;SDS011;15011;53.380;10.034;2023-05-19T22:52:26;895.22;;;802.67;;
27576;SDS011;15011;53.380;10.034;2023-05-19T22:57:26;851.53;;;768.70;;
27576;SDS011;15011;53.380;10.034;2023-05-19T23:02:27;844.80;;;763.70;;
27576;SDS011;15011;53.380;10.034;2023-05-19T23:07:27;870.90;;;784.33;;
27576;SDS011;15011;53.380;10.034;2023-05-19T23:12:28;761.58;;;692.83;;
27576;SDS011;15011;53.380;10.034;2023-05-19T23:17:28;783.60;;;708.70;;
27576;SDS011;15011;53.380;10.034;2023-05-19T23:22:28;914.15;;;823.47;;
27576;SDS011;15011;53.380;10.034;2023-05-19T23:27:29;787.28;;;714.00;;
27576;SDS011;15011;53.380;10.034;2023-05-19T23:32:30;907.63;;;815.50;;
27576;SDS011;15011;53.380;10.034;2023-05-19T23:37:31;825.28;;;744.63;;
27576;SDS011;15011;53.380;10.034;2023-05-19T23:42:31;889.47;;;800.33;;
27576;SDS011;15011;53.380;10.034;2023-05-19T23:47:32;809.95;;;733.58;;
27576;SDS011;15011;53.380;10.034;2023-05-19T23:52:33;783.63;;;708.20;;
27576;SDS011;15011;53.380;10.034;2023-05-19T23:57:33;851.22;;;766.63;;
